sensor_id;sensor_type;location;lat;lon;timestamp;P1;durP1;ratioP1;P2;durP2;ratioP2
479;SDS011;226;48.606;9.096;2022-07-17T00:00:59;2.40;;;2.20;;
479;SDS011;226;48.606;9.096;2022-07-17T00:03:27;3.60;;;3.00;;
479;SDS011;226;48.606;9.096;2022-07-17T00:05:56;2.53;;;2.33;;
479;SDS011;226;48.606;9.096;2022-07-17T00:08:24;19.53;;;3.43;;
479;SDS011;226;48.606;9.096;2022-07-17T00:10:52;2.40;;;2.20;;
479;SDS011;226;48.606;9.096;2022-07-17T00:13:22;2.97;;;2.67;;
479;SDS011;226;48.606;9.096;2022-07-17T00:15:50;12.40;;;2.60;;
479;SDS011;226;48.606;9.096;2022-07-17T00:18:18;3.03;;;2.77;;
479;SDS011;226;48.606;9.096;2022-07-17T00:20:47;4.40;;;2.80;;
479;SDS011;226;48.606;9.096;2022-07-17T00:23:15;4.07;;;2.90;;
479;SDS011;226;48.606;9.096;2022-07-17T00:25:44;8.83;;;3.37;;
479;SDS011;226;48.606;9.096;2022-07-17T00:28:13;4.50;;;3.07;;
479;SDS011;226;48.606;9.096;2022-07-17T00:30:43;6.10;;;3.90;;
479;SDS011;226;48.606;9.096;2022-07-17T00:33:11;3.93;;;3.50;;
479;SDS011;226;48.606;9.096;2022-07-17T00:35:40;5.40;;;2.67;;
479;SDS011;226;48.606;9.096;2022-07-17T00:38:08;5.60;;;3.30;;
479;SDS011;226;48.606;9.096;2022-07-17T00:40:37;9.50;;;3.10;;
479;SDS011;226;48.606;9.096;2022-07-17T00:43:05;3.90;;;2.27;;
479;SDS011;226;48.606;9.096;2022-07-17T00:45:34;5.23;;;4.80;;
479;SDS011;226;48.606;9.096;2022-07-17T00:48:04;6.87;;;3.47;;
479;SDS011;226;48.606;9.096;2022-07-17T00:50:38;6.97;;;3.40;;
479;SDS011;226;48.606;9.096;2022-07-17T00:53:07;2.50;;;2.30;;
479;SDS011;226;48.606;9.096;2022-07-17T00:55:37;3.83;;;3.43;;
479;SDS011;226;48.606;9.096;2022-07-17T00:58:09;2.20;;;2.10;;
479;SDS011;226;48.606;9.096;2022-07-17T01:00:38;4.50;;;3.13;;
479;SDS011;226;48.606;9.096;2022-07-17T01:03:07;4.00;;;2.80;;
479;SDS011;226;48.606;9.096;2022-07-17T01:05:36;6.00;;;3.03;;
479;SDS011;226;48.606;9.096;2022-07-17T01:08:06;6.30;;;3.53;;
479;SDS011;226;48.606;9.096;2022-07-17T01:10:34;5.70;;;3.57;;
479;SDS011;226;48.606;9.096;2022-07-17T01:13:02;5.23;;;3.40;;
479;SDS011;226;48.606;9.096;2022-07-17T01:15:31;3.07;;;2.77;;
479;SDS011;226;48.606;9.096;2022-07-17T01:17:59;3.60;;;2.70;;
479;SDS011;226;48.606;9.096;2022-07-17T01:20:34;3.37;;;2.50;;
479;SDS011;226;48.606;9.096;2022-07-17T01:23:04;4.50;;;2.67;;
479;SDS011;226;48.606;9.096;2022-07-17T01:25:33;8.23;;;2.90;;
479;SDS011;226;48.606;9.096;2022-07-17T01:28:03;4.60;;;3.13;;
479;SDS011;226;48.606;9.096;2022-07-17T01:30:32;3.53;;;2.97;;
479;SDS011;226;48.606;9.096;2022-07-17T01:33:00;11.53;;;2.70;;
479;SDS011;226;48.606;9.096;2022-07-17T01:35:29;7.00;;;3.53;;
479;SDS011;226;48.606;9.096;2022-07-17T01:37:58;7.43;;;3.40;;
479;SDS011;226;48.606;9.096;2022-07-17T01:40:27;4.67;;;3.27;;
479;SDS011;226;48.606;9.096;2022-07-17T01:42:56;5.20;;;2.83;;
479;SDS011;226;48.606;9.096;2022-07-17T01:45:24;6.47;;;3.30;;
479;SDS011;226;48.606;9.096;2022-07-17T01:47:52;4.50;;;2.90;;
479;SDS011;226;48.606;9.096;2022-07-17T01:50:20;5.43;;;3.10;;
479;SDS011;226;48.606;9.096;2022-07-17T01:52:49;3.03;;;2.83;;
479;SDS011;226;48.606;9.096;2022-07-17T01:55:17;6.17;;;3.10;;
479;SDS011;226;48.606;9.096;2022-07-17T01:57:46;5.70;;;3.87;;
479;SDS011;226;48.606;9.096;2022-07-17T02:00:15;4.10;;;3.57;;
479;SDS011;226;48.606;9.096;2022-07-17T02:02:45;4.80;;;3.20;;
479;SDS011;226;48.606;9.096;2022-07-17T02:05:13;5.00;;;3.53;;
479;SDS011;226;48.606;9.096;2022-07-17T02:07:41;6.90;;;4.47;;
479;SDS011;226;48.606;9.096;2022-07-17T02:10:10;3.63;;;3.23;;
479;SDS011;226;48.606;9.096;2022-07-17T02:12:41;6.20;;;3.90;;
479;SDS011;226;48.606;9.096;2022-07-17T02:15:11;3.60;;;3.30;;
479;SDS011;226;48.606;9.096;2022-07-17T02:17:40;2.93;;;2.73;;
479;SDS011;226;48.606;9.096;2022-07-17T02:20:09;2.83;;;2.63;;
479;SDS011;226;48.606;9.096;2022-07-17T02:22:38;3.90;;;2.47;;
479;SDS011;226;48.606;9.096;2022-07-17T02:25:07;3.40;;;3.07;;
479;SDS011;226;48.606;9.096;2022-07-17T02:27:36;4.33;;;3.10;;
479;SDS011;226;48.606;9.096;2022-07-17T02:30:05;5.67;;;3.50;;
479;SDS011;226;48.606;9.096;2022-07-17T02:32:37;4.10;;;3.80;;
479;SDS011;226;48.606;9.096;2022-07-17T02:35:06;3.60;;;3.30;;
479;SDS011;226;48.606;9.096;2022-07-17T02:37:35;5.97;;;3.60;;
479;SDS011;226;48.606;9.096;2022-07-17T02:40:04;7.70;;;4.90;;
479;SDS011;226;48.606;9.096;2022-07-17T02:42:33;3.67;;;3.37;;
479;SDS011;226;48.606;9.096;2022-07-17T02:45:01;6.30;;;4.13;;
479;SDS011;226;48.606;9.096;2022-07-17T02:47:30;6.37;;;3.23;;
479;SDS011;226;48.606;9.096;2022-07-17T02:50:00;3.80;;;3.40;;
479;SDS011;226;48.606;9.096;2022-07-17T02:52:30;8.30;;;4.07;;
479;SDS011;226;48.606;9.096;2022-07-17T02:54:58;6.97;;;3.50;;
479;SDS011;226;48.606;9.096;2022-07-17T02:57:26;4.60;;;3.57;;
479;SDS011;226;48.606;9.096;2022-07-17T02:59:54;5.77;;;3.13;;
479;SDS011;226;48.606;9.096;2022-07-17T03:02:22;4.33;;;3.57;;
479;SDS011;226;48.606;9.096;2022-07-17T03:04:50;7.27;;;4.50;;
479;SDS011;226;48.606;9.096;2022-07-17T03:07:20;8.93;;;4.40;;
479;SDS011;226;48.606;9.096;2022-07-17T03:09:48;4.80;;;3.20;;
479;SDS011;226;48.606;9.096;2022-07-17T03:12:16;3.97;;;3.07;;
479;SDS011;226;48.606;9.096;2022-07-17T03:14:44;4.30;;;3.00;;
479;SDS011;226;48.606;9.096;2022-07-17T03:17:12;5.23;;;3.20;;
479;SDS011;226;48.606;9.096;2022-07-17T03:19:41;3.90;;;3.60;;
479;SDS011;226;48.606;9.096;2022-07-17T03:22:09;5.17;;;4.27;;
479;SDS011;226;48.606;9.096;2022-07-17T03:24:39;5.20;;;3.43;;
479;SDS011;226;48.606;9.096;2022-07-17T03:27:07;5.70;;;4.00;;
479;SDS011;226;48.606;9.096;2022-07-17T03:29:35;9.47;;;4.23;;
479;SDS011;226;48.606;9.096;2022-07-17T03:32:04;8.60;;;4.33;;
479;SDS011;226;48.606;9.096;2022-07-17T03:34:32;3.53;;;3.30;;
479;SDS011;226;48.606;9.096;2022-07-17T03:37:00;7.30;;;4.50;;
479;SDS011;226;48.606;9.096;2022-07-17T03:39:28;3.73;;;3.00;;
479;SDS011;226;48.606;9.096;2022-07-17T03:41:58;7.67;;;3.80;;
479;SDS011;226;48.606;9.096;2022-07-17T03:44:26;6.07;;;3.30;;
479;SDS011;226;48.606;9.096;2022-07-17T03:46:54;7.50;;;4.17;;
479;SDS011;226;48.606;9.096;2022-07-17T03:49:22;17.13;;;4.67;;
479;SDS011;226;48.606;9.096;2022-07-17T03:51:50;3.30;;;3.00;;
479;SDS011;226;48.606;9.096;2022-07-17T03:54:18;8.03;;;3.40;;
479;SDS011;226;48.606;9.096;2022-07-17T03:56:47;6.90;;;3.20;;
479;SDS011;226;48.606;9.096;2022-07-17T03:59:16;3.97;;;3.57;;
479;SDS011;226;48.606;9.096;2022-07-17T04:01:44;3.97;;;3.13;;
479;SDS011;226;48.606;9.096;2022-07-17T04:04:12;3.93;;;3.53;;
479;SDS011;226;48.606;9.096;2022-07-17T04:06:40;3.93;;;3.43;;
479;SDS011;226;48.606;9.096;2022-07-17T04:09:08;6.40;;;4.20;;
479;SDS011;226;48.606;9.096;2022-07-17T04:11:36;4.77;;;4.13;;
479;SDS011;226;48.606;9.096;2022-07-17T04:14:04;5.30;;;3.80;;
479;SDS011;226;48.606;9.096;2022-07-17T04:16:34;3.80;;;3.50;;
479;SDS011;226;48.606;9.096;2022-07-17T04:19:02;4.37;;;3.57;;
479;SDS011;226;48.606;9.096;2022-07-17T04:21:30;3.83;;;3.43;;
479;SDS011;226;48.606;9.096;2022-07-17T04:23:58;6.93;;;3.93;;
479;SDS011;226;48.606;9.096;2022-07-17T04:26:26;4.77;;;4.00;;
479;SDS011;226;48.606;9.096;2022-07-17T04:28:54;6.17;;;3.50;;
479;SDS011;226;48.606;9.096;2022-07-17T04:31:23;4.70;;;3.80;;
479;SDS011;226;48.606;9.096;2022-07-17T04:33:52;4.93;;;3.70;;
479;SDS011;226;48.606;9.096;2022-07-17T04:36:20;6.73;;;3.77;;
479;SDS011;226;48.606;9.096;2022-07-17T04:38:48;4.40;;;3.70;;
479;SDS011;226;48.606;9.096;2022-07-17T04:41:17;4.93;;;4.00;;
479;SDS011;226;48.606;9.096;2022-07-17T04:43:45;4.00;;;3.17;;
479;SDS011;226;48.606;9.096;2022-07-17T04:46:13;6.13;;;3.80;;
479;SDS011;226;48.606;9.096;2022-07-17T04:48:41;5.50;;;3.70;;
479;SDS011;226;48.606;9.096;2022-07-17T04:51:10;4.43;;;3.87;;
479;SDS011;226;48.606;9.096;2022-07-17T04:53:38;5.20;;;3.67;;
479;SDS011;226;48.606;9.096;2022-07-17T04:56:07;3.93;;;3.20;;
479;SDS011;226;48.606;9.096;2022-07-17T04:58:35;6.50;;;3.20;;
479;SDS011;226;48.606;9.096;2022-07-17T05:01:03;5.77;;;3.40;;
479;SDS011;226;48.606;9.096;2022-07-17T05:03:31;3.93;;;3.50;;
479;SDS011;226;48.606;9.096;2022-07-17T05:05:59;5.87;;;3.40;;
479;SDS011;226;48.606;9.096;2022-07-17T05:08:29;6.87;;;4.07;;
479;SDS011;226;48.606;9.096;2022-07-17T05:10:57;8.23;;;3.47;;
479;SDS011;226;48.606;9.096;2022-07-17T05:13:25;4.70;;;3.43;;
479;SDS011;226;48.606;9.096;2022-07-17T05:15:54;4.70;;;4.30;;
479;SDS011;226;48.606;9.096;2022-07-17T05:18:22;5.53;;;4.27;;
479;SDS011;226;48.606;9.096;2022-07-17T05:20:50;4.37;;;3.50;;
479;SDS011;226;48.606;9.096;2022-07-17T05:23:18;6.30;;;3.97;;
479;SDS011;226;48.606;9.096;2022-07-17T05:25:47;5.20;;;3.80;;
479;SDS011;226;48.606;9.096;2022-07-17T05:28:15;6.87;;;4.00;;
479;SDS011;226;48.606;9.096;2022-07-17T05:30:43;5.13;;;4.10;;
479;SDS011;226;48.606;9.096;2022-07-17T05:33:11;3.00;;;2.77;;
479;SDS011;226;48.606;9.096;2022-07-17T05:35:39;4.03;;;3.23;;
479;SDS011;226;48.606;9.096;2022-07-17T05:38:07;9.20;;;3.10;;
479;SDS011;226;48.606;9.096;2022-07-17T05:40:37;6.20;;;3.30;;
479;SDS011;226;48.606;9.096;2022-07-17T05:43:06;3.93;;;3.20;;
479;SDS011;226;48.606;9.096;2022-07-17T05:45:34;7.07;;;3.63;;
479;SDS011;226;48.606;9.096;2022-07-17T05:48:05;7.40;;;3.43;;
479;SDS011;226;48.606;9.096;2022-07-17T05:50:33;6.50;;;3.77;;
479;SDS011;226;48.606;9.096;2022-07-17T05:53:02;3.83;;;3.10;;
479;SDS011;226;48.606;9.096;2022-07-17T05:55:30;4.53;;;3.03;;
479;SDS011;226;48.606;9.096;2022-07-17T05:57:58;5.37;;;4.00;;
479;SDS011;226;48.606;9.096;2022-07-17T06:00:27;6.93;;;3.77;;
479;SDS011;226;48.606;9.096;2022-07-17T06:02:56;3.47;;;3.13;;
479;SDS011;226;48.606;9.096;2022-07-17T06:05:24;3.93;;;3.50;;
479;SDS011;226;48.606;9.096;2022-07-17T06:07:53;5.33;;;3.23;;
479;SDS011;226;48.606;9.096;2022-07-17T06:10:22;3.90;;;3.40;;
479;SDS011;226;48.606;9.096;2022-07-17T06:12:51;4.50;;;3.33;;
479;SDS011;226;48.606;9.096;2022-07-17T06:15:20;5.00;;;4.27;;
479;SDS011;226;48.606;9.096;2022-07-17T06:17:49;4.57;;;3.57;;
479;SDS011;226;48.606;9.096;2022-07-17T06:20:18;6.70;;;3.80;;
479;SDS011;226;48.606;9.096;2022-07-17T06:22:46;5.00;;;3.30;;
479;SDS011;226;48.606;9.096;2022-07-17T06:25:14;6.53;;;4.10;;
479;SDS011;226;48.606;9.096;2022-07-17T06:27:42;8.60;;;4.43;;
479;SDS011;226;48.606;9.096;2022-07-17T06:30:11;7.80;;;4.00;;
479;SDS011;226;48.606;9.096;2022-07-17T06:32:41;5.37;;;3.60;;
479;SDS011;226;48.606;9.096;2022-07-17T06:35:11;4.63;;;4.23;;
479;SDS011;226;48.606;9.096;2022-07-17T06:37:39;4.80;;;3.70;;
479;SDS011;226;48.606;9.096;2022-07-17T06:40:07;6.20;;;4.00;;
479;SDS011;226;48.606;9.096;2022-07-17T06:42:36;4.40;;;3.47;;
479;SDS011;226;48.606;9.096;2022-07-17T06:45:04;6.47;;;3.73;;
479;SDS011;226;48.606;9.096;2022-07-17T06:47:33;3.57;;;3.07;;
479;SDS011;226;48.606;9.096;2022-07-17T06:50:01;7.43;;;4.80;;
479;SDS011;226;48.606;9.096;2022-07-17T06:52:31;4.53;;;3.73;;
479;SDS011;226;48.606;9.096;2022-07-17T06:54:59;7.30;;;4.73;;
479;SDS011;226;48.606;9.096;2022-07-17T06:57:27;7.10;;;3.93;;
479;SDS011;226;48.606;9.096;2022-07-17T06:59:55;5.10;;;3.80;;
479;SDS011;226;48.606;9.096;2022-07-17T07:02:24;4.83;;;2.90;;
479;SDS011;226;48.606;9.096;2022-07-17T07:04:52;4.20;;;3.47;;
479;SDS011;226;48.606;9.096;2022-07-17T07:07:20;3.00;;;2.80;;
479;SDS011;226;48.606;9.096;2022-07-17T07:09:49;4.23;;;3.53;;
479;SDS011;226;48.606;9.096;2022-07-17T07:12:18;4.73;;;3.20;;
479;SDS011;226;48.606;9.096;2022-07-17T07:14:46;6.60;;;3.73;;
479;SDS011;226;48.606;9.096;2022-07-17T07:17:14;5.57;;;3.97;;
479;SDS011;226;48.606;9.096;2022-07-17T07:19:42;5.40;;;3.20;;
479;SDS011;226;48.606;9.096;2022-07-17T07:22:10;2.73;;;2.50;;
479;SDS011;226;48.606;9.096;2022-07-17T07:24:38;4.17;;;3.03;;
479;SDS011;226;48.606;9.096;2022-07-17T07:27:07;4.50;;;3.33;;
479;SDS011;226;48.606;9.096;2022-07-17T07:29:36;2.07;;;1.97;;
479;SDS011;226;48.606;9.096;2022-07-17T07:32:04;5.60;;;3.40;;
479;SDS011;226;48.606;9.096;2022-07-17T07:34:32;4.07;;;2.20;;
479;SDS011;226;48.606;9.096;2022-07-17T07:37:00;4.73;;;3.30;;
479;SDS011;226;48.606;9.096;2022-07-17T07:39:28;3.03;;;2.80;;
479;SDS011;226;48.606;9.096;2022-07-17T07:41:56;6.00;;;3.77;;
479;SDS011;226;48.606;9.096;2022-07-17T07:44:27;4.43;;;3.30;;
479;SDS011;226;48.606;9.096;2022-07-17T07:46:57;2.47;;;2.23;;
479;SDS011;226;48.606;9.096;2022-07-17T07:49:26;3.03;;;2.63;;
479;SDS011;226;48.606;9.096;2022-07-17T07:51:54;5.00;;;2.60;;
479;SDS011;226;48.606;9.096;2022-07-17T07:54:30;5.37;;;3.20;;
479;SDS011;226;48.606;9.096;2022-07-17T07:56:58;4.60;;;3.23;;
479;SDS011;226;48.606;9.096;2022-07-17T07:59:28;4.23;;;2.87;;
479;SDS011;226;48.606;9.096;2022-07-17T08:01:59;3.10;;;2.80;;
479;SDS011;226;48.606;9.096;2022-07-17T08:04:28;3.30;;;3.00;;
479;SDS011;226;48.606;9.096;2022-07-17T08:06:56;4.10;;;3.00;;
479;SDS011;226;48.606;9.096;2022-07-17T08:09:24;4.83;;;2.57;;
479;SDS011;226;48.606;9.096;2022-07-17T08:11:53;6.70;;;3.63;;
479;SDS011;226;48.606;9.096;2022-07-17T08:14:21;5.00;;;2.53;;
479;SDS011;226;48.606;9.096;2022-07-17T08:16:50;2.70;;;2.50;;
479;SDS011;226;48.606;9.096;2022-07-17T08:19:18;3.00;;;2.20;;
479;SDS011;226;48.606;9.096;2022-07-17T08:21:47;2.20;;;2.10;;
479;SDS011;226;48.606;9.096;2022-07-17T08:24:15;2.83;;;2.27;;
479;SDS011;226;48.606;9.096;2022-07-17T08:26:43;3.37;;;3.03;;
479;SDS011;226;48.606;9.096;2022-07-17T08:29:11;2.73;;;2.50;;
479;SDS011;226;48.606;9.096;2022-07-17T08:31:39;3.07;;;2.77;;
479;SDS011;226;48.606;9.096;2022-07-17T08:34:08;4.10;;;3.37;;
479;SDS011;226;48.606;9.096;2022-07-17T08:36:37;2.33;;;2.10;;
479;SDS011;226;48.606;9.096;2022-07-17T08:39:05;3.53;;;2.73;;
479;SDS011;226;48.606;9.096;2022-07-17T08:41:34;2.50;;;2.30;;
479;SDS011;226;48.606;9.096;2022-07-17T08:44:04;2.80;;;2.60;;
479;SDS011;226;48.606;9.096;2022-07-17T08:46:32;2.80;;;2.60;;
479;SDS011;226;48.606;9.096;2022-07-17T08:49:02;2.03;;;1.93;;
479;SDS011;226;48.606;9.096;2022-07-17T08:51:33;2.20;;;2.00;;
479;SDS011;226;48.606;9.096;2022-07-17T08:54:06;3.57;;;2.40;;
479;SDS011;226;48.606;9.096;2022-07-17T08:56:34;2.40;;;2.20;;
479;SDS011;226;48.606;9.096;2022-07-17T08:59:02;2.30;;;2.10;;
479;SDS011;226;48.606;9.096;2022-07-17T09:01:31;2.67;;;2.47;;
479;SDS011;226;48.606;9.096;2022-07-17T09:03:59;4.30;;;2.43;;
479;SDS011;226;48.606;9.096;2022-07-17T09:06:34;6.43;;;2.33;;
479;SDS011;226;48.606;9.096;2022-07-17T09:09:04;3.23;;;1.80;;
479;SDS011;226;48.606;9.096;2022-07-17T09:11:43;2.00;;;1.90;;
479;SDS011;226;48.606;9.096;2022-07-17T09:14:12;1.90;;;1.80;;
479;SDS011;226;48.606;9.096;2022-07-17T09:16:47;2.17;;;2.03;;
479;SDS011;226;48.606;9.096;2022-07-17T09:19:24;1.97;;;1.87;;
479;SDS011;226;48.606;9.096;2022-07-17T09:22:10;2.60;;;2.40;;
479;SDS011;226;48.606;9.096;2022-07-17T09:24:40;2.53;;;1.97;;
479;SDS011;226;48.606;9.096;2022-07-17T09:27:11;2.30;;;2.00;;
479;SDS011;226;48.606;9.096;2022-07-17T09:29:52;2.40;;;2.20;;
479;SDS011;226;48.606;9.096;2022-07-17T09:32:23;1.83;;;1.73;;
479;SDS011;226;48.606;9.096;2022-07-17T09:34:53;1.77;;;1.67;;
479;SDS011;226;48.606;9.096;2022-07-17T09:37:24;2.10;;;2.00;;
479;SDS011;226;48.606;9.096;2022-07-17T09:39:53;2.53;;;2.33;;
479;SDS011;226;48.606;9.096;2022-07-17T09:42:23;3.20;;;2.10;;
479;SDS011;226;48.606;9.096;2022-07-17T09:44:56;2.90;;;2.23;;
479;SDS011;226;48.606;9.096;2022-07-17T09:47:25;2.23;;;2.00;;
479;SDS011;226;48.606;9.096;2022-07-17T09:49:55;3.37;;;2.13;;
479;SDS011;226;48.606;9.096;2022-07-17T09:52:27;2.17;;;2.00;;
479;SDS011;226;48.606;9.096;2022-07-17T09:54:57;2.67;;;2.30;;
479;SDS011;226;48.606;9.096;2022-07-17T09:57:46;1.87;;;1.73;;
479;SDS011;226;48.606;9.096;2022-07-17T10:00:16;2.90;;;2.63;;
479;SDS011;226;48.606;9.096;2022-07-17T10:02:49;2.40;;;2.20;;
479;SDS011;226;48.606;9.096;2022-07-17T10:05:17;2.40;;;2.20;;
479;SDS011;226;48.606;9.096;2022-07-17T10:07:47;3.63;;;1.87;;
479;SDS011;226;48.606;9.096;2022-07-17T10:10:16;4.13;;;2.53;;
479;SDS011;226;48.606;9.096;2022-07-17T10:12:46;2.53;;;2.33;;
479;SDS011;226;48.606;9.096;2022-07-17T10:15:16;1.93;;;1.83;;
479;SDS011;226;48.606;9.096;2022-07-17T10:17:46;2.30;;;2.10;;
479;SDS011;226;48.606;9.096;2022-07-17T10:20:23;2.20;;;2.10;;
479;SDS011;226;48.606;9.096;2022-07-17T10:22:53;1.90;;;1.80;;
479;SDS011;226;48.606;9.096;2022-07-17T10:25:22;3.20;;;2.70;;
479;SDS011;226;48.606;9.096;2022-07-17T10:27:51;4.53;;;2.17;;
479;SDS011;226;48.606;9.096;2022-07-17T10:30:24;3.50;;;2.33;;
479;SDS011;226;48.606;9.096;2022-07-17T10:32:54;3.33;;;2.70;;
479;SDS011;226;48.606;9.096;2022-07-17T10:35:25;2.67;;;2.10;;
479;SDS011;226;48.606;9.096;2022-07-17T10:37:58;2.40;;;2.13;;
479;SDS011;226;48.606;9.096;2022-07-17T10:40:37;2.53;;;1.80;;
479;SDS011;226;48.606;9.096;2022-07-17T10:43:06;2.10;;;2.00;;
479;SDS011;226;48.606;9.096;2022-07-17T10:45:35;1.73;;;1.63;;
479;SDS011;226;48.606;9.096;2022-07-17T10:48:06;3.80;;;2.30;;
479;SDS011;226;48.606;9.096;2022-07-17T10:50:35;1.80;;;1.70;;
479;SDS011;226;48.606;9.096;2022-07-17T10:53:11;1.87;;;1.77;;
479;SDS011;226;48.606;9.096;2022-07-17T10:55:50;4.40;;;1.87;;
479;SDS011;226;48.606;9.096;2022-07-17T10:58:20;2.00;;;1.80;;
479;SDS011;226;48.606;9.096;2022-07-17T11:01:00;1.63;;;1.53;;
479;SDS011;226;48.606;9.096;2022-07-17T11:03:31;3.57;;;2.57;;
479;SDS011;226;48.606;9.096;2022-07-17T11:06:06;2.00;;;1.90;;
479;SDS011;226;48.606;9.096;2022-07-17T11:08:45;2.00;;;1.90;;
479;SDS011;226;48.606;9.096;2022-07-17T11:11:15;1.83;;;1.73;;
479;SDS011;226;48.606;9.096;2022-07-17T11:13:55;3.73;;;2.30;;
479;SDS011;226;48.606;9.096;2022-07-17T11:16:34;1.60;;;1.50;;
479;SDS011;226;48.606;9.096;2022-07-17T11:19:03;1.80;;;1.70;;
479;SDS011;226;48.606;9.096;2022-07-17T11:21:31;1.60;;;1.57;;
479;SDS011;226;48.606;9.096;2022-07-17T11:24:03;2.53;;;2.00;;
479;SDS011;226;48.606;9.096;2022-07-17T11:26:31;1.67;;;1.57;;
479;SDS011;226;48.606;9.096;2022-07-17T11:28:59;1.57;;;1.47;;
479;SDS011;226;48.606;9.096;2022-07-17T11:31:28;2.00;;;1.80;;
479;SDS011;226;48.606;9.096;2022-07-17T11:33:58;2.33;;;2.13;;
479;SDS011;226;48.606;9.096;2022-07-17T11:36:28;2.03;;;1.93;;
479;SDS011;226;48.606;9.096;2022-07-17T11:38:58;3.60;;;1.73;;
479;SDS011;226;48.606;9.096;2022-07-17T11:41:33;1.80;;;1.70;;
479;SDS011;226;48.606;9.096;2022-07-17T11:44:03;1.93;;;1.60;;
479;SDS011;226;48.606;9.096;2022-07-17T11:46:32;2.27;;;2.00;;
479;SDS011;226;48.606;9.096;2022-07-17T11:49:01;2.40;;;2.20;;
479;SDS011;226;48.606;9.096;2022-07-17T11:51:33;2.10;;;1.90;;
479;SDS011;226;48.606;9.096;2022-07-17T11:54:03;1.93;;;1.83;;
479;SDS011;226;48.606;9.096;2022-07-17T11:56:33;4.73;;;1.93;;
479;SDS011;226;48.606;9.096;2022-07-17T11:59:02;2.27;;;2.00;;
479;SDS011;226;48.606;9.096;2022-07-17T12:01:37;1.73;;;1.63;;
479;SDS011;226;48.606;9.096;2022-07-17T12:04:07;2.40;;;2.20;;
479;SDS011;226;48.606;9.096;2022-07-17T12:06:42;1.97;;;1.87;;
479;SDS011;226;48.606;9.096;2022-07-17T12:09:11;1.70;;;1.60;;
479;SDS011;226;48.606;9.096;2022-07-17T12:11:47;2.87;;;2.10;;
479;SDS011;226;48.606;9.096;2022-07-17T12:14:16;1.83;;;1.73;;
479;SDS011;226;48.606;9.096;2022-07-17T12:16:45;2.63;;;2.20;;
479;SDS011;226;48.606;9.096;2022-07-17T12:19:14;2.57;;;2.47;;
479;SDS011;226;48.606;9.096;2022-07-17T12:21:49;1.80;;;1.70;;
479;SDS011;226;48.606;9.096;2022-07-17T12:24:21;2.17;;;1.73;;
479;SDS011;226;48.606;9.096;2022-07-17T12:26:53;1.93;;;1.57;;
479;SDS011;226;48.606;9.096;2022-07-17T12:29:23;1.40;;;1.30;;
479;SDS011;226;48.606;9.096;2022-07-17T12:32:02;1.63;;;1.60;;
479;SDS011;226;48.606;9.096;2022-07-17T12:34:31;2.27;;;2.17;;
479;SDS011;226;48.606;9.096;2022-07-17T12:37:00;3.50;;;1.70;;
479;SDS011;226;48.606;9.096;2022-07-17T12:39:29;1.60;;;1.50;;
479;SDS011;226;48.606;9.096;2022-07-17T12:41:58;2.57;;;1.80;;
479;SDS011;226;48.606;9.096;2022-07-17T12:44:26;2.00;;;1.90;;
479;SDS011;226;48.606;9.096;2022-07-17T12:46:54;2.70;;;1.70;;
479;SDS011;226;48.606;9.096;2022-07-17T12:49:23;1.80;;;1.70;;
479;SDS011;226;48.606;9.096;2022-07-17T12:51:52;2.10;;;2.00;;
479;SDS011;226;48.606;9.096;2022-07-17T12:54:20;2.50;;;2.17;;
479;SDS011;226;48.606;9.096;2022-07-17T12:56:48;1.97;;;1.87;;
479;SDS011;226;48.606;9.096;2022-07-17T12:59:17;1.40;;;1.40;;
479;SDS011;226;48.606;9.096;2022-07-17T13:01:46;3.20;;;1.33;;
479;SDS011;226;48.606;9.096;2022-07-17T13:04:14;1.60;;;1.50;;
479;SDS011;226;48.606;9.096;2022-07-17T13:06:42;1.47;;;1.37;;
479;SDS011;226;48.606;9.096;2022-07-17T13:09:10;1.83;;;1.33;;
479;SDS011;226;48.606;9.096;2022-07-17T13:11:40;1.87;;;1.60;;
479;SDS011;226;48.606;9.096;2022-07-17T13:14:11;1.73;;;1.57;;
479;SDS011;226;48.606;9.096;2022-07-17T13:16:41;1.60;;;1.50;;
479;SDS011;226;48.606;9.096;2022-07-17T13:19:09;1.60;;;1.40;;
479;SDS011;226;48.606;9.096;2022-07-17T13:21:38;1.63;;;1.53;;
479;SDS011;226;48.606;9.096;2022-07-17T13:24:06;2.10;;;1.83;;
479;SDS011;226;48.606;9.096;2022-07-17T13:26:34;1.90;;;1.80;;
479;SDS011;226;48.606;9.096;2022-07-17T13:29:02;1.83;;;1.73;;
479;SDS011;226;48.606;9.096;2022-07-17T13:31:30;1.70;;;1.60;;
479;SDS011;226;48.606;9.096;2022-07-17T13:34:00;1.90;;;1.80;;
479;SDS011;226;48.606;9.096;2022-07-17T13:36:28;2.30;;;1.60;;
479;SDS011;226;48.606;9.096;2022-07-17T13:38:57;2.33;;;1.83;;
479;SDS011;226;48.606;9.096;2022-07-17T13:41:25;1.37;;;1.27;;
479;SDS011;226;48.606;9.096;2022-07-17T13:43:53;1.20;;;1.20;;
479;SDS011;226;48.606;9.096;2022-07-17T13:46:21;1.53;;;1.30;;
479;SDS011;226;48.606;9.096;2022-07-17T13:48:49;2.40;;;2.30;;
479;SDS011;226;48.606;9.096;2022-07-17T13:51:19;1.47;;;1.30;;
479;SDS011;226;48.606;9.096;2022-07-17T13:53:47;5.20;;;1.37;;
479;SDS011;226;48.606;9.096;2022-07-17T13:56:15;1.20;;;1.20;;
479;SDS011;226;48.606;9.096;2022-07-17T13:58:43;2.73;;;1.60;;
479;SDS011;226;48.606;9.096;2022-07-17T14:01:12;2.30;;;2.00;;
479;SDS011;226;48.606;9.096;2022-07-17T14:03:48;2.97;;;1.70;;
479;SDS011;226;48.606;9.096;2022-07-17T14:06:16;1.53;;;1.43;;
479;SDS011;226;48.606;9.096;2022-07-17T14:08:46;1.20;;;1.20;;
479;SDS011;226;48.606;9.096;2022-07-17T14:11:14;1.40;;;1.30;;
479;SDS011;226;48.606;9.096;2022-07-17T14:13:42;1.60;;;1.50;;
479;SDS011;226;48.606;9.096;2022-07-17T14:16:16;2.37;;;1.40;;
479;SDS011;226;48.606;9.096;2022-07-17T14:18:44;1.67;;;1.57;;
479;SDS011;226;48.606;9.096;2022-07-17T14:21:26;1.50;;;1.30;;
479;SDS011;226;48.606;9.096;2022-07-17T14:23:55;1.43;;;1.33;;
479;SDS011;226;48.606;9.096;2022-07-17T14:26:24;1.70;;;1.60;;
479;SDS011;226;48.606;9.096;2022-07-17T14:28:52;1.53;;;1.43;;
479;SDS011;226;48.606;9.096;2022-07-17T14:31:21;1.50;;;1.40;;
479;SDS011;226;48.606;9.096;2022-07-17T14:33:50;1.37;;;1.27;;
479;SDS011;226;48.606;9.096;2022-07-17T14:36:19;1.27;;;1.27;;
479;SDS011;226;48.606;9.096;2022-07-17T14:38:47;1.67;;;1.40;;
479;SDS011;226;48.606;9.096;2022-07-17T14:41:17;1.37;;;1.27;;
479;SDS011;226;48.606;9.096;2022-07-17T14:43:45;1.17;;;1.17;;
479;SDS011;226;48.606;9.096;2022-07-17T14:46:14;1.20;;;1.20;;
479;SDS011;226;48.606;9.096;2022-07-17T14:48:42;1.57;;;1.47;;
479;SDS011;226;48.606;9.096;2022-07-17T14:51:11;1.20;;;1.20;;
479;SDS011;226;48.606;9.096;2022-07-17T14:53:39;1.60;;;1.50;;
479;SDS011;226;48.606;9.096;2022-07-17T14:56:08;1.40;;;1.30;;
479;SDS011;226;48.606;9.096;2022-07-17T14:58:38;1.17;;;1.13;;
479;SDS011;226;48.606;9.096;2022-07-17T15:01:07;1.20;;;1.20;;
479;SDS011;226;48.606;9.096;2022-07-17T15:03:35;1.57;;;1.47;;
479;SDS011;226;48.606;9.096;2022-07-17T15:06:03;1.47;;;1.37;;
479;SDS011;226;48.606;9.096;2022-07-17T15:08:31;1.40;;;1.40;;
479;SDS011;226;48.606;9.096;2022-07-17T15:10:59;1.63;;;1.53;;
479;SDS011;226;48.606;9.096;2022-07-17T15:13:27;1.10;;;1.10;;
479;SDS011;226;48.606;9.096;2022-07-17T15:15:57;0.90;;;0.90;;
479;SDS011;226;48.606;9.096;2022-07-17T15:18:25;1.80;;;1.10;;
479;SDS011;226;48.606;9.096;2022-07-17T15:20:53;1.50;;;1.30;;
479;SDS011;226;48.606;9.096;2022-07-17T15:23:22;1.50;;;1.40;;
479;SDS011;226;48.606;9.096;2022-07-17T15:25:50;1.30;;;1.30;;
479;SDS011;226;48.606;9.096;2022-07-17T15:28:18;1.50;;;1.40;;
479;SDS011;226;48.606;9.096;2022-07-17T15:30:46;1.60;;;1.50;;
479;SDS011;226;48.606;9.096;2022-07-17T15:33:28;1.70;;;1.60;;
479;SDS011;226;48.606;9.096;2022-07-17T15:35:57;1.20;;;1.20;;
479;SDS011;226;48.606;9.096;2022-07-17T15:38:26;1.23;;;1.13;;
479;SDS011;226;48.606;9.096;2022-07-17T15:40:55;1.67;;;1.57;;
479;SDS011;226;48.606;9.096;2022-07-17T15:43:23;1.17;;;1.13;;
479;SDS011;226;48.606;9.096;2022-07-17T15:45:51;1.77;;;1.67;;
479;SDS011;226;48.606;9.096;2022-07-17T15:48:19;0.90;;;0.90;;
479;SDS011;226;48.606;9.096;2022-07-17T15:50:49;1.73;;;1.60;;
479;SDS011;226;48.606;9.096;2022-07-17T15:53:17;1.40;;;1.30;;
479;SDS011;226;48.606;9.096;2022-07-17T15:55:45;1.30;;;1.30;;
479;SDS011;226;48.606;9.096;2022-07-17T15:58:13;1.10;;;1.03;;